sensor_id;sensor_type;location;lat;lon;timestamp;pressure;altitude;pressure_sealevel;temperature;humidity
41967;BME280;27656;53.068;8.818;2024-02-28T00:00:32;101989.31;;;1.21;100.00
41967;BME280;27656;53.068;8.818;2024-02-28T00:02:59;101990.09;;;1.23;100.00
41967;BME280;27656;53.068;8.818;2024-02-28T00:05:25;101983.19;;;1.22;100.00
41967;BME280;27656;53.068;8.818;2024-02-28T00:07:52;101987.34;;;1.26;100.00
41967;BME280;27656;53.068;8.818;2024-02-28T00:10:19;101984.41;;;1.34;100.00
41967;BME280;27656;53.068;8.818;2024-02-28T00:12:46;101986.09;;;1.35;100.00
41967;BME280;27656;53.068;8.818;2024-02-28T00:15:12;101971.13;;;1.40;100.00
41967;BME280;27656;53.068;8.818;2024-02-28T00:17:40;101972.59;;;1.46;100.00
41967;BME280;27656;53.068;8.818;2024-02-28T00:20:09;101976.75;;;1.50;100.00
41967;BME280;27656;53.068;8.818;2024-02-28T00:22:36;101978.44;;;1.51;100.00
41967;BME280;27656;53.068;8.818;2024-02-28T00:25:05;101976.66;;;1.52;100.00
41967;BME280;27656;53.068;8.818;2024-02-28T00:27:33;101972.34;;;1.52;100.00
41967;BME280;27656;53.068;8.818;2024-02-28T00:30:01;101980.78;;;1.57;100.00
41967;BME280;27656;53.068;8.818;2024-02-28T00:32:27;101973.59;;;1.62;100.00
41967;BME280;27656;53.068;8.818;2024-02-28T00:34:54;101964.84;;;1.63;100.00
41967;BME280;27656;53.068;8.818;2024-02-28T00:37:20;101972.75;;;1.62;100.00
41967;BME280;27656;53.068;8.818;2024-02-28T00:39:49;101964.06;;;1.61;100.00
41967;BME280;27656;53.068;8.818;2024-02-28T00:42:16;101963.19;;;1.62;100.00
41967;BME280;27656;53.068;8.818;2024-02-28T00:44:42;101950.09;;;1.64;100.00
41967;BME280;27656;53.068;8.818;2024-02-28T00:47:09;101952.81;;;1.61;100.00
41967;BME280;27656;53.068;8.818;2024-02-28T00:49:37;101951.56;;;1.51;100.00
41967;BME280;27656;53.068;8.818;2024-02-28T00:52:03;101954.59;;;1.41;100.00
41967;BME280;27656;53.068;8.818;2024-02-28T00:54:30;101963.38;;;1.39;100.00
41967;BME280;27656;53.068;8.818;2024-02-28T00:56:57;101971.97;;;1.41;100.00
41967;BME280;27656;53.068;8.818;2024-02-28T00:59:23;101969.72;;;1.52;100.00
41967;BME280;27656;53.068;8.818;2024-02-28T01:01:50;101969.38;;;1.60;100.00
41967;BME280;27656;53.068;8.818;2024-02-28T01:04:17;101966.81;;;1.58;100.00
41967;BME280;27656;53.068;8.818;2024-02-28T01:06:43;101960.94;;;1.55;100.00
41967;BME280;27656;53.068;8.818;2024-02-28T01:09:10;101949.66;;;1.54;100.00
41967;BME280;27656;53.068;8.818;2024-02-28T01:11:36;101947.22;;;1.51;100.00
41967;BME280;27656;53.068;8.818;2024-02-28T01:14:04;101940.19;;;1.53;100.00
41967;BME280;27656;53.068;8.818;2024-02-28T01:16:30;101939.41;;;1.51;100.00
41967;BME280;27656;53.068;8.818;2024-02-28T01:18:57;101938.06;;;1.42;100.00
41967;BME280;27656;53.068;8.818;2024-02-28T01:21:23;101930.53;;;1.36;100.00
41967;BME280;27656;53.068;8.818;2024-02-28T01:23:51;101937.84;;;1.28;100.00
41967;BME280;27656;53.068;8.818;2024-02-28T01:26:17;101932.94;;;1.22;100.00
41967;BME280;27656;53.068;8.818;2024-02-28T01:28:46;101935.38;;;1.06;100.00
41967;BME280;27656;53.068;8.818;2024-02-28T01:31:13;101934.22;;;0.93;100.00
41967;BME280;27656;53.068;8.818;2024-02-28T01:33:39;101942.75;;;0.76;100.00
41967;BME280;27656;53.068;8.818;2024-02-28T01:36:07;101939.59;;;0.69;100.00
41967;BME280;27656;53.068;8.818;2024-02-28T01:38:33;101944.53;;;0.55;100.00
41967;BME280;27656;53.068;8.818;2024-02-28T01:40:59;101937.03;;;0.47;100.00
41967;BME280;27656;53.068;8.818;2024-02-28T01:43:26;101939.72;;;0.46;100.00
41967;BME280;27656;53.068;8.818;2024-02-28T01:45:52;101936.31;;;0.44;100.00
41967;BME280;27656;53.068;8.818;2024-02-28T01:48:19;101942.56;;;0.39;100.00
41967;BME280;27656;53.068;8.818;2024-02-28T01:50:46;101935.50;;;0.21;100.00
41967;BME280;27656;53.068;8.818;2024-02-28T01:53:12;101936.63;;;0.15;100.00
41967;BME280;27656;53.068;8.818;2024-02-28T01:55:40;101935.81;;;0.13;100.00
41967;BME280;27656;53.068;8.818;2024-02-28T01:58:07;101938.69;;;0.07;100.00
41967;BME280;27656;53.068;8.818;2024-02-28T02:00:33;101939.44;;;0.09;100.00
41967;BME280;27656;53.068;8.818;2024-02-28T02:03:01;101936.84;;;0.09;100.00
41967;BME280;27656;53.068;8.818;2024-02-28T02:05:28;101938.13;;;-0.01;100.00
41967;BME280;27656;53.068;8.818;2024-02-28T02:07:57;101938.97;;;-0.01;100.00
41967;BME280;27656;53.068;8.818;2024-02-28T02:10:24;101942.22;;;0.05;100.00
41967;BME280;27656;53.068;8.818;2024-02-28T02:12:51;101945.50;;;0.10;100.00
41967;BME280;27656;53.068;8.818;2024-02-28T02:15:18;101949.41;;;0.20;100.00
41967;BME280;27656;53.068;8.818;2024-02-28T02:17:45;101949.22;;;0.25;100.00
41967;BME280;27656;53.068;8.818;2024-02-28T02:20:14;101948.19;;;0.29;100.00
41967;BME280;27656;53.068;8.818;2024-02-28T02:22:41;101942.81;;;0.33;100.00
41967;BME280;27656;53.068;8.818;2024-02-28T02:25:08;101943.38;;;0.40;100.00
41967;BME280;27656;53.068;8.818;2024-02-28T02:27:35;101933.00;;;0.40;100.00
41967;BME280;27656;53.068;8.818;2024-02-28T02:30:02;101945.16;;;0.39;100.00
41967;BME280;27656;53.068;8.818;2024-02-28T02:32:29;101940.69;;;0.43;100.00
41967;BME280;27656;53.068;8.818;2024-02-28T02:34:56;101944.53;;;0.55;100.00
41967;BME280;27656;53.068;8.818;2024-02-28T02:37:22;101953.84;;;0.59;100.00
41967;BME280;27656;53.068;8.818;2024-02-28T02:39:49;101948.47;;;0.63;100.00
41967;BME280;27656;53.068;8.818;2024-02-28T02:42:15;101949.97;;;0.69;100.00
41967;BME280;27656;53.068;8.818;2024-02-28T02:44:42;101957.44;;;0.77;100.00
41967;BME280;27656;53.068;8.818;2024-02-28T02:47:08;101949.25;;;0.86;100.00
41967;BME280;27656;53.068;8.818;2024-02-28T02:49:35;101954.75;;;0.99;100.00
41967;BME280;27656;53.068;8.818;2024-02-28T02:52:02;101945.75;;;1.06;100.00
41967;BME280;27656;53.068;8.818;2024-02-28T02:54:28;101938.69;;;1.10;100.00
41967;BME280;27656;53.068;8.818;2024-02-28T02:56:55;101946.28;;;1.14;100.00
41967;BME280;27656;53.068;8.818;2024-02-28T02:59:21;101944.31;;;1.19;100.00
41967;BME280;27656;53.068;8.818;2024-02-28T03:01:49;101951.00;;;1.25;100.00
41967;BME280;27656;53.068;8.818;2024-02-28T03:04:15;101949.13;;;1.29;100.00
41967;BME280;27656;53.068;8.818;2024-02-28T03:06:42;101950.84;;;1.28;100.00
41967;BME280;27656;53.068;8.818;2024-02-28T03:09:09;101950.72;;;1.31;100.00
41967;BME280;27656;53.068;8.818;2024-02-28T03:11:35;101949.66;;;1.35;100.00
41967;BME280;27656;53.068;8.818;2024-02-28T03:14:02;101951.06;;;1.42;100.00
41967;BME280;27656;53.068;8.818;2024-02-28T03:16:28;101939.75;;;1.43;100.00
41967;BME280;27656;53.068;8.818;2024-02-28T03:18:55;101930.13;;;1.45;100.00
41967;BME280;27656;53.068;8.818;2024-02-28T03:21:22;101931.75;;;1.48;100.00
41967;BME280;27656;53.068;8.818;2024-02-28T03:23:49;101932.38;;;1.53;100.00
41967;BME280;27656;53.068;8.818;2024-02-28T03:26:16;101940.19;;;1.53;100.00
41967;BME280;27656;53.068;8.818;2024-02-28T03:28:42;101940.81;;;1.58;100.00
41967;BME280;27656;53.068;8.818;2024-02-28T03:31:09;101951.56;;;1.69;100.00
41967;BME280;27656;53.068;8.818;2024-02-28T03:33:35;101940.09;;;1.74;100.00
41967;BME280;27656;53.068;8.818;2024-02-28T03:36:02;101947.59;;;1.80;100.00
41967;BME280;27656;53.068;8.818;2024-02-28T03:38:29;101953.66;;;1.80;100.00
41967;BME280;27656;53.068;8.818;2024-02-28T03:40:55;101957.97;;;1.81;100.00
41967;BME280;27656;53.068;8.818;2024-02-28T03:43:21;101955.34;;;1.81;100.00
41967;BME280;27656;53.068;8.818;2024-02-28T03:45:48;101958.84;;;1.80;100.00
41967;BME280;27656;53.068;8.818;2024-02-28T03:48:16;101959.19;;;1.91;100.00
41967;BME280;27656;53.068;8.818;2024-02-28T03:50:43;101961.75;;;1.93;100.00
41967;BME280;27656;53.068;8.818;2024-02-28T03:53:09;101964.28;;;1.95;100.00
41967;BME280;27656;53.068;8.818;2024-02-28T03:55:36;101961.69;;;1.95;100.00
41967;BME280;27656;53.068;8.818;2024-02-28T03:58:04;101959.91;;;1.95;100.00
41967;BME280;27656;53.068;8.818;2024-02-28T04:00:33;101958.38;;;1.91;100.00
41967;BME280;27656;53.068;8.818;2024-02-28T04:03:00;101962.78;;;1.89;100.00
41967;BME280;27656;53.068;8.818;2024-02-28T04:05:26;101952.53;;;1.86;100.00
41967;BME280;27656;53.068;8.818;2024-02-28T04:07:53;101950.50;;;1.74;100.00
41967;BME280;27656;53.068;8.818;2024-02-28T04:10:19;101957.81;;;1.65;100.00
41967;BME280;27656;53.068;8.818;2024-02-28T04:12:46;101952.00;;;1.60;100.00
41967;BME280;27656;53.068;8.818;2024-02-28T04:15:13;101956.16;;;1.64;100.00
41967;BME280;27656;53.068;8.818;2024-02-28T04:17:41;101952.19;;;1.56;100.00
41967;BME280;27656;53.068;8.818;2024-02-28T04:20:12;101961.25;;;1.47;100.00
41967;BME280;27656;53.068;8.818;2024-02-28T04:22:39;101953.66;;;1.42;100.00
41967;BME280;27656;53.068;8.818;2024-02-28T04:25:08;101953.25;;;1.33;100.00
41967;BME280;27656;53.068;8.818;2024-02-28T04:27:35;101956.63;;;1.35;100.00
41967;BME280;27656;53.068;8.818;2024-02-28T04:30:02;101962.53;;;1.19;100.00
41967;BME280;27656;53.068;8.818;2024-02-28T04:32:29;101961.91;;;1.14;100.00
41967;BME280;27656;53.068;8.818;2024-02-28T04:34:55;101963.97;;;1.06;100.00
41967;BME280;27656;53.068;8.818;2024-02-28T04:37:22;101970.28;;;1.00;100.00
41967;BME280;27656;53.068;8.818;2024-02-28T04:39:49;101967.84;;;0.97;100.00
41967;BME280;27656;53.068;8.818;2024-02-28T04:42:16;101967.31;;;0.89;100.00
41967;BME280;27656;53.068;8.818;2024-02-28T04:44:42;101973.69;;;0.82;100.00
41967;BME280;27656;53.068;8.818;2024-02-28T04:47:09;101981.47;;;0.82;100.00
41967;BME280;27656;53.068;8.818;2024-02-28T04:49:38;101977.13;;;0.82;100.00
41967;BME280;27656;53.068;8.818;2024-02-28T04:52:05;101970.44;;;0.77;100.00
41967;BME280;27656;53.068;8.818;2024-02-28T04:54:33;101971.47;;;0.73;100.00
41967;BME280;27656;53.068;8.818;2024-02-28T04:57:00;101973.22;;;0.72;100.00
41967;BME280;27656;53.068;8.818;2024-02-28T04:59:26;101975.88;;;0.71;100.00
41967;BME280;27656;53.068;8.818;2024-02-28T05:01:53;101973.47;;;0.66;100.00
41967;BME280;27656;53.068;8.818;2024-02-28T05:04:19;101977.19;;;0.60;100.00
41967;BME280;27656;53.068;8.818;2024-02-28T05:06:47;101979.13;;;0.55;100.00
41967;BME280;27656;53.068;8.818;2024-02-28T05:09:13;101978.59;;;0.47;100.00
41967;BME280;27656;53.068;8.818;2024-02-28T05:11:40;101984.84;;;0.43;100.00
41967;BME280;27656;53.068;8.818;2024-02-28T05:14:09;101985.88;;;0.39;100.00
41967;BME280;27656;53.068;8.818;2024-02-28T05:16:36;101993.06;;;0.32;100.00
41967;BME280;27656;53.068;8.818;2024-02-28T05:19:03;101992.47;;;0.26;100.00
41967;BME280;27656;53.068;8.818;2024-02-28T05:21:31;101992.28;;;0.30;100.00
41967;BME280;27656;53.068;8.818;2024-02-28T05:23:57;101985.88;;;0.39;100.00
41967;BME280;27656;53.068;8.818;2024-02-28T05:26:24;101994.97;;;0.49;100.00
41967;BME280;27656;53.068;8.818;2024-02-28T05:28:51;101994.53;;;0.60;100.00
41967;BME280;27656;53.068;8.818;2024-02-28T05:31:25;101996.69;;;0.71;100.00
41967;BME280;27656;53.068;8.818;2024-02-28T05:33:53;101996.25;;;0.81;100.00
41967;BME280;27656;53.068;8.818;2024-02-28T05:36:22;101992.47;;;0.89;100.00
41967;BME280;27656;53.068;8.818;2024-02-28T05:38:49;102000.84;;;0.95;100.00
41967;BME280;27656;53.068;8.818;2024-02-28T05:41:16;102001.94;;;0.90;100.00
41967;BME280;27656;53.068;8.818;2024-02-28T05:43:44;102002.41;;;0.99;100.00
41967;BME280;27656;53.068;8.818;2024-02-28T05:46:10;102005.13;;;0.96;100.00
41967;BME280;27656;53.068;8.818;2024-02-28T05:48:37;102002.78;;;0.90;100.00
41967;BME280;27656;53.068;8.818;2024-02-28T05:51:04;102005.91;;;0.98;100.00
41967;BME280;27656;53.068;8.818;2024-02-28T05:53:30;102009.44;;;0.97;100.00
41967;BME280;27656;53.068;8.818;2024-02-28T05:56:03;102012.09;;;0.96;100.00
41967;BME280;27656;53.068;8.818;2024-02-28T05:58:30;102022.34;;;0.99;100.00
41967;BME280;27656;53.068;8.818;2024-02-28T06:00:57;102019.72;;;1.00;100.00
41967;BME280;27656;53.068;8.818;2024-02-28T06:03:23;102027.81;;;1.13;100.00
41967;BME280;27656;53.068;8.818;2024-02-28T06:05:50;102022.03;;;1.06;100.00
41967;BME280;27656;53.068;8.818;2024-02-28T06:08:16;102025.69;;;1.02;100.00
41967;BME280;27656;53.068;8.818;2024-02-28T06:10:43;102031.59;;;1.06;100.00
41967;BME280;27656;53.068;8.818;2024-02-28T06:13:12;102031.16;;;1.17;100.00
41967;BME280;27656;53.068;8.818;2024-02-28T06:15:39;102031.19;;;1.15;100.00
41967;BME280;27656;53.068;8.818;2024-02-28T06:18:06;102032.81;;;1.18;100.00
41967;BME280;27656;53.068;8.818;2024-02-28T06:20:32;102028.44;;;1.18;100.00
41967;BME280;27656;53.068;8.818;2024-02-28T06:22:59;102038.56;;;1.26;100.00
41967;BME280;27656;53.068;8.818;2024-02-28T06:25:35;102040.75;;;1.15;100.00
41967;BME280;27656;53.068;8.818;2024-02-28T06:28:01;102042.38;;;1.17;100.00
41967;BME280;27656;53.068;8.818;2024-02-28T06:30:33;102046.41;;;1.24;100.00
41967;BME280;27656;53.068;8.818;2024-02-28T06:33:00;102052.31;;;1.28;100.00
41967;BME280;27656;53.068;8.818;2024-02-28T06:35:27;102051.94;;;1.17;100.00
41967;BME280;27656;53.068;8.818;2024-02-28T06:37:54;102042.81;;;1.27;100.00
41967;BME280;27656;53.068;8.818;2024-02-28T06:40:20;102041.84;;;1.09;100.00
41967;BME280;27656;53.068;8.818;2024-02-28T06:42:47;102054.47;;;1.18;100.00
41967;BME280;27656;53.068;8.818;2024-02-28T06:45:13;102052.06;;;1.14;100.00
41967;BME280;27656;53.068;8.818;2024-02-28T06:47:40;102059.28;;;1.27;100.00
41967;BME280;27656;53.068;8.818;2024-02-28T06:50:07;102061.81;;;1.29;100.00
41967;BME280;27656;53.068;8.818;2024-02-28T06:52:33;102064.81;;;1.40;100.00
41967;BME280;27656;53.068;8.818;2024-02-28T06:55:01;102067.13;;;1.46;100.00
41967;BME280;27656;53.068;8.818;2024-02-28T06:57:30;102065.94;;;1.54;100.00
41967;BME280;27656;53.068;8.818;2024-02-28T06:59:56;102070.25;;;1.55;100.00
41967;BME280;27656;53.068;8.818;2024-02-28T07:02:23;102074.47;;;1.57;100.00
41967;BME280;27656;53.068;8.818;2024-02-28T07:04:49;102077.72;;;1.62;100.00
41967;BME280;27656;53.068;8.818;2024-02-28T07:07:16;102073.09;;;1.69;100.00
41967;BME280;27656;53.068;8.818;2024-02-28T07:09:42;102066.69;;;1.76;100.00
41967;BME280;27656;53.068;8.818;2024-02-28T07:12:09;102073.16;;;1.67;100.00
41967;BME280;27656;53.068;8.818;2024-02-28T07:14:35;102079.81;;;1.73;100.00
41967;BME280;27656;53.068;8.818;2024-02-28T07:17:03;102077.88;;;1.78;100.00
41967;BME280;27656;53.068;8.818;2024-02-28T07:19:29;102087.44;;;1.78;100.00
41967;BME280;27656;53.068;8.818;2024-02-28T07:21:56;102089.38;;;1.54;100.00
41967;BME280;27656;53.068;8.818;2024-02-28T07:24:22;102089.47;;;1.52;100.00
41967;BME280;27656;53.068;8.818;2024-02-28T07:26:49;102095.38;;;1.75;100.00
41967;BME280;27656;53.068;8.818;2024-02-28T07:29:17;102097.59;;;1.84;100.00
41967;BME280;27656;53.068;8.818;2024-02-28T07:31:43;102103.72;;;2.02;100.00
41967;BME280;27656;53.068;8.818;2024-02-28T07:34:11;102095.63;;;2.08;100.00
41967;BME280;27656;53.068;8.818;2024-02-28T07:36:38;102095.47;;;2.11;100.00
41967;BME280;27656;53.068;8.818;2024-02-28T07:39:04;102097.38;;;2.07;100.00
41967;BME280;27656;53.068;8.818;2024-02-28T07:41:31;102094.63;;;2.10;100.00
41967;BME280;27656;53.068;8.818;2024-02-28T07:43:58;102100.13;;;2.04;100.00
41967;BME280;27656;53.068;8.818;2024-02-28T07:46:25;102094.41;;;1.96;100.00
41967;BME280;27656;53.068;8.818;2024-02-28T07:48:51;102105.75;;;1.95;100.00
41967;BME280;27656;53.068;8.818;2024-02-28T07:51:18;102102.66;;;2.06;100.00
41967;BME280;27656;53.068;8.818;2024-02-28T07:53:45;102100.97;;;2.24;100.00
41967;BME280;27656;53.068;8.818;2024-02-28T07:56:20;102102.78;;;2.41;100.00
41967;BME280;27656;53.068;8.818;2024-02-28T07:58:47;102102.31;;;2.69;100.00
41967;BME280;27656;53.068;8.818;2024-02-28T08:01:14;102107.69;;;2.83;100.00
41967;BME280;27656;53.068;8.818;2024-02-28T08:03:42;102101.66;;;3.00;100.00
41967;BME280;27656;53.068;8.818;2024-02-28T08:06:10;102107.59;;;2.85;100.00
41967;BME280;27656;53.068;8.818;2024-02-28T08:08:37;102107.47;;;2.88;100.00
41967;BME280;27656;53.068;8.818;2024-02-28T08:11:03;102101.66;;;3.00;100.00
41967;BME280;27656;53.068;8.818;2024-02-28T08:13:30;102100.34;;;3.09;100.00
41967;BME280;27656;53.068;8.818;2024-02-28T08:15:59;102106.34;;;3.11;100.00
41967;BME280;27656;53.068;8.818;2024-02-28T08:18:27;102097.88;;;2.88;100.00
41967;BME280;27656;53.068;8.818;2024-02-28T08:20:54;102097.50;;;3.13;100.00
41967;BME280;27656;53.068;8.818;2024-02-28T08:23:23;102097.44;;;3.48;100.00
41967;BME280;27656;53.068;8.818;2024-02-28T08:25:52;102102.91;;;3.44;100.00
41967;BME280;27656;53.068;8.818;2024-02-28T08:28:19;102108.03;;;3.63;100.00
41967;BME280;27656;53.068;8.818;2024-02-28T08:30:46;102117.50;;;3.48;100.00
41967;BME280;27656;53.068;8.818;2024-02-28T08:33:12;102115.00;;;3.29;100.00
41967;BME280;27656;53.068;8.818;2024-02-28T08:35:39;102126.97;;;3.15;100.00
41967;BME280;27656;53.068;8.818;2024-02-28T08:38:05;102128.41;;;3.04;100.00
41967;BME280;27656;53.068;8.818;2024-02-28T08:40:32;102123.59;;;3.13;100.00
41967;BME280;27656;53.068;8.818;2024-02-28T08:42:58;102134.41;;;3.06;100.00
41967;BME280;27656;53.068;8.818;2024-02-28T08:45:25;102138.50;;;3.11;100.00
41967;BME280;27656;53.068;8.818;2024-02-28T08:47:52;102141.94;;;3.12;100.00
41967;BME280;27656;53.068;8.818;2024-02-28T08:50:19;102142.16;;;3.25;100.00
41967;BME280;27656;53.068;8.818;2024-02-28T08:52:46;102146.25;;;3.30;100.00
41967;BME280;27656;53.068;8.818;2024-02-28T08:55:12;102143.97;;;3.57;100.00
41967;BME280;27656;53.068;8.818;2024-02-28T08:57:39;102146.34;;;3.62;100.00
41967;BME280;27656;53.068;8.818;2024-02-28T09:00:06;102150.81;;;3.77;100.00
41967;BME280;27656;53.068;8.818;2024-02-28T09:02:35;102150.59;;;3.98;100.00
41967;BME280;27656;53.068;8.818;2024-02-28T09:05:04;102143.78;;;4.11;100.00
41967;BME280;27656;53.068;8.818;2024-02-28T09:07:30;102149.88;;;4.28;100.00
41967;BME280;27656;53.068;8.818;2024-02-28T09:09:57;102149.53;;;4.50;100.00
41967;BME280;27656;53.068;8.818;2024-02-28T09:12:23;102150.50;;;4.79;100.00
41967;BME280;27656;53.068;8.818;2024-02-28T09:14:50;102158.53;;;4.92;100.00
41967;BME280;27656;53.068;8.818;2024-02-28T09:17:24;102157.94;;;5.17;100.00
41967;BME280;27656;53.068;8.818;2024-02-28T09:19:50;102165.56;;;5.36;100.00
41967;BME280;27656;53.068;8.818;2024-02-28T09:22:18;102165.59;;;5.50;100.00
41967;BME280;27656;53.068;8.818;2024-02-28T09:24:44;102160.47;;;5.48;100.00
41967;BME280;27656;53.068;8.818;2024-02-28T09:27:11;102164.50;;;5.68;100.00
41967;BME280;27656;53.068;8.818;2024-02-28T09:29:37;102161.34;;;5.92;100.00
41967;BME280;27656;53.068;8.818;2024-02-28T09:32:04;102161.00;;;6.27;100.00
41967;BME280;27656;53.068;8.818;2024-02-28T09:34:31;102163.63;;;6.54;100.00
41967;BME280;27656;53.068;8.818;2024-02-28T09:36:58;102167.84;;;6.56;100.00
41967;BME280;27656;53.068;8.818;2024-02-28T09:39:24;102166.09;;;6.43;100.00
41967;BME280;27656;53.068;8.818;2024-02-28T09:41:52;102169.38;;;6.46;100.00
41967;BME280;27656;53.068;8.818;2024-02-28T09:44:23;102167.56;;;6.61;100.00
41967;BME280;27656;53.068;8.818;2024-02-28T09:46:51;102161.88;;;6.82;100.00
41967;BME280;27656;53.068;8.818;2024-02-28T09:49:18;102163.78;;;6.92;100.00
41967;BME280;27656;53.068;8.818;2024-02-28T09:51:48;102171.97;;;6.88;100.00
41967;BME280;27656;53.068;8.818;2024-02-28T09:54:16;102167.84;;;7.11;100.00
41967;BME280;27656;53.068;8.818;2024-02-28T09:56:43;102168.00;;;6.95;100.00
41967;BME280;27656;53.068;8.818;2024-02-28T09:59:11;102174.00;;;6.97;100.00
41967;BME280;27656;53.068;8.818;2024-02-28T10:01:43;102173.63;;;6.62;100.00
41967;BME280;27656;53.068;8.818;2024-02-28T10:04:13;102169.28;;;6.33;100.00
41967;BME280;27656;53.068;8.818;2024-02-28T10:06:40;102166.63;;;6.06;100.00
41967;BME280;27656;53.068;8.818;2024-02-28T10:09:07;102166.66;;;5.90;100.00
41967;BME280;27656;53.068;8.818;2024-02-28T10:11:34;102162.84;;;5.67;100.00
41967;BME280;27656;53.068;8.818;2024-02-28T10:14:02;102165.81;;;5.61;100.00
41967;BME280;27656;53.068;8.818;2024-02-28T10:16:29;102167.94;;;5.40;100.00
41967;BME280;27656;53.068;8.818;2024-02-28T10:18:55;102168.69;;;5.42;100.00
41967;BME280;27656;53.068;8.818;2024-02-28T10:21:22;102167.56;;;5.46;100.00
41967;BME280;27656;53.068;8.818;2024-02-28T10:23:49;102163.47;;;5.57;100.00
41967;BME280;27656;53.068;8.818;2024-02-28T10:26:16;102166.75;;;5.60;100.00
41967;BME280;27656;53.068;8.818;2024-02-28T10:28:42;102167.88;;;5.56;100.00
41967;BME280;27656;53.068;8.818;2024-02-28T10:31:12;102168.78;;;5.55;100.00
41967;BME280;27656;53.068;8.818;2024-02-28T10:33:41;102165.34;;;5.69;100.00
41967;BME280;27656;53.068;8.818;2024-02-28T10:36:08;102172.72;;;5.62;100.00
41967;BME280;27656;53.068;8.818;2024-02-28T10:38:35;102167.19;;;5.52;100.00
41967;BME280;27656;53.068;8.818;2024-02-28T10:41:05;102164.81;;;5.78;100.00
41967;BME280;27656;53.068;8.818;2024-02-28T10:43:35;102168.66;;;5.87;100.00
41967;BME280;27656;53.068;8.818;2024-02-28T10:46:02;102171.91;;;5.90;100.00
41967;BME280;27656;53.068;8.818;2024-02-28T10:48:31;102167.09;;;5.99;100.00
41967;BME280;27656;53.068;8.818;2024-02-28T10:50:58;102168.97;;;5.97;100.00
41967;BME280;27656;53.068;8.818;2024-02-28T10:53:32;102172.81;;;6.05;100.00
41967;BME280;27656;53.068;8.818;2024-02-28T10:56:02;102174.66;;;5.89;100.00
41967;BME280;27656;53.068;8.818;2024-02-28T10:58:35;102177.38;;;6.02;100.00
41967;BME280;27656;53.068;8.818;2024-02-28T11:01:05;102176.34;;;6.04;100.00
41967;BME280;27656;53.068;8.818;2024-02-28T11:03:32;102181.69;;;6.17;100.00
41967;BME280;27656;53.068;8.818;2024-02-28T11:05:59;102182.41;;;6.33;100.00
41967;BME280;27656;53.068;8.818;2024-02-28T11:08:27;102190.91;;;6.51;100.00
41967;BME280;27656;53.068;8.818;2024-02-28T11:10:58;102191.25;;;6.59;100.00
41967;BME280;27656;53.068;8.818;2024-02-28T11:13:26;102189.03;;;6.53;100.00
41967;BME280;27656;53.068;8.818;2024-02-28T11:15:53;102192.81;;;6.35;100.00
41967;BME280;27656;53.068;8.818;2024-02-28T11:18:21;102188.53;;;6.34;100.00
41967;BME280;27656;53.068;8.818;2024-02-28T11:20:48;102192.53;;;6.25;100.00
41967;BME280;27656;53.068;8.818;2024-02-28T11:23:17;102184.31;;;6.31;100.00
41967;BME280;27656;53.068;8.818;2024-02-28T11:25:44;102188.03;;;6.42;100.00
41967;BME280;27656;53.068;8.818;2024-02-28T11:28:10;102196.81;;;6.41;100.00
41967;BME280;27656;53.068;8.818;2024-02-28T11:30:37;102191.00;;;6.50;100.00
41967;BME280;27656;53.068;8.818;2024-02-28T11:33:03;102191.34;;;6.72;100.00
41967;BME280;27656;53.068;8.818;2024-02-28T11:35:32;102183.44;;;6.99;100.00
41967;BME280;27656;53.068;8.818;2024-02-28T11:37:59;102191.16;;;7.03;100.00
41967;BME280;27656;53.068;8.818;2024-02-28T11:40:26;102186.16;;;7.25;100.00
41967;BME280;27656;53.068;8.818;2024-02-28T11:42:54;102195.00;;;7.50;100.00
41967;BME280;27656;53.068;8.818;2024-02-28T11:45:21;102202.91;;;7.50;100.00
41967;BME280;27656;53.068;8.818;2024-02-28T11:47:48;102192.50;;;7.48;100.00
41967;BME280;27656;53.068;8.818;2024-02-28T11:50:14;102194.31;;;7.48;100.00
41967;BME280;27656;53.068;8.818;2024-02-28T11:52:42;102194.03;;;7.38;100.00
41967;BME280;27656;53.068;8.818;2024-02-28T11:55:09;102194.13;;;7.23;100.00
41967;BME280;27656;53.068;8.818;2024-02-28T11:57:36;102201.69;;;7.28;100.00
41967;BME280;27656;53.068;8.818;2024-02-28T12:00:04;102185.03;;;7.29;100.00
41967;BME280;27656;53.068;8.818;2024-02-28T12:02:31;102189.44;;;7.29;100.00
41967;BME280;27656;53.068;8.818;2024-02-28T12:05:05;102183.72;;;6.82;100.00
41967;BME280;27656;53.068;8.818;2024-02-28T12:07:32;102182.97;;;6.80;100.00
41967;BME280;27656;53.068;8.818;2024-02-28T12:09:59;102183.88;;;6.93;100.00
41967;BME280;27656;53.068;8.818;2024-02-28T12:12:29;102184.34;;;7.13;100.00
41967;BME280;27656;53.068;8.818;2024-02-28T12:14:59;102183.59;;;7.11;100.00
41967;BME280;27656;53.068;8.818;2024-02-28T12:17:27;102173.41;;;7.06;100.00
41967;BME280;27656;53.068;8.818;2024-02-28T12:19:55;102175.41;;;7.03;100.00
41967;BME280;27656;53.068;8.818;2024-02-28T12:22:22;102172.78;;;7.03;100.00
41967;BME280;27656;53.068;8.818;2024-02-28T12:24:48;102166.19;;;6.83;100.00
41967;BME280;27656;53.068;8.818;2024-02-28T12:27:15;102161.59;;;6.86;100.00
41967;BME280;27656;53.068;8.818;2024-02-28T12:29:41;102154.25;;;6.91;100.00
41967;BME280;27656;53.068;8.818;2024-02-28T12:32:08;102157.63;;;6.93;100.00
41967;BME280;27656;53.068;8.818;2024-02-28T12:34:35;102146.31;;;7.06;100.00
41967;BME280;27656;53.068;8.818;2024-02-28T12:37:01;102147.56;;;7.13;100.00
41967;BME280;27656;53.068;8.818;2024-02-28T12:39:30;102146.97;;;7.22;100.00
41967;BME280;27656;53.068;8.818;2024-02-28T12:41:58;102144.94;;;7.00;100.00
41967;BME280;27656;53.068;8.818;2024-02-28T12:44:25;102135.06;;;7.04;100.00
41967;BME280;27656;53.068;8.818;2024-02-28T12:46:52;102130.16;;;7.37;100.00
41967;BME280;27656;53.068;8.818;2024-02-28T12:49:18;102130.38;;;7.47;100.00